• Join FlightAware (Why Join?)
  • Login
  • US Flag 
03:28PM EDT


 

Airport Tracker/Info


-or-


 

Live Flight TrackerFlight Track Log ✈ N516QS ✈ 19-Aug-2013 ✈ KOQU - KDAL

Flight Track Log - Related Links

Times and Time Zones

All times are in EDT time to prevent confusion due to time zone crossing. See the N516QS flight status page for this flight to view local times or setup timezone preferences in your user account.

Time Position Orientation Groundspeed Altitude Reporting Facility
EDT Latitude Longitude Course Direction KTS MPH feet Rate Location/Type
02:48PM 35.0971 -92.0501 255° West  Level Estimated
02:49PM 35.0409 -92.1784 242° Southwest  Level Estimated
02:50PM 34.9846 -92.3065 242° Southwest  Level Estimated
02:51PM 34.9282 -92.4345 242° Southwest  Level Estimated
02:52PM 34.8716 -92.5623 242° Southwest  Level Estimated
02:53PM 34.8149 -92.6899 242° Southwest  Level Estimated
02:54PM 34.7580 -92.8173 242° Southwest  Level Estimated
02:55PM 34.7010 -92.9445 241° Southwest  Level Estimated
02:56PM 34.6439 -93.0716 241° Southwest  Level Estimated
02:57PM 34.5867 -93.1985 241° Southwest  Level Estimated
02:58PM 34.5293 -93.3252 241° Southwest  Level Estimated
02:59PM 34.4718 -93.4517 241° Southwest  Level Estimated
03:00PM 34.4142 -93.5781 241° Southwest  Level Estimated
03:01PM 34.3564 -93.7043 241° Southwest  Level Estimated
03:02PM 34.2985 -93.8303 241° Southwest  Level Estimated
03:03PM 34.2405 -93.9562 241° Southwest  Level Estimated
03:04PM 34.1823 -94.0818 241° Southwest  Level Estimated
03:05PM 34.1240 -94.2073 241° Southwest  Level Estimated
03:05PM 41.4797 -73.5956 240° Southwest 384 442 42,800  Level New York Center
03:06PM 34.0656 -94.3327 241° Southwest  Level Estimated
03:06PM 41.4083 -73.7061 229° Southwest 398 458 43,000  Level New York Center
03:07PM 34.0071 -94.4578 241° Southwest  Level Estimated
03:07PM 41.3325 -73.8186 228° Southwest 409 471 43,000  Level New York Center
03:08PM 33.9484 -94.5828 241° Southwest  Level Estimated
03:08PM 41.2589 -73.9311 229° Southwest 409 471 43,000  Level New York Center
03:09PM 33.8896 -94.7076 240° Southwest  Level Estimated
03:09PM 41.2014 -74.0553 238° Southwest 409 471 43,000  Level New York Center
03:10PM 33.8307 -94.8323 240° Southwest  Level Estimated
03:10PM 41.1436 -74.1792 238° Southwest 403 464 43,000  Level New York Center
03:11PM 41.0906 -74.2894 237° Southwest 403 464 43,000  Level New York Center
03:12PM 41.0367 -74.4158 241° Southwest 398 458 43,000  Level New York Center
03:13PM 40.9786 -74.5392 238° Southwest 398 458 43,000  Level New York Center
03:14PM 40.9225 -74.6653 240° Southwest 398 458 43,000  Level New York Center
03:15PM 40.8639 -74.7908 238° Southwest 398 458 43,000  Level New York Center
03:16PM 40.8078 -74.9136 239° Southwest 398 458 43,000  Level New York Center
03:17PM 40.7492 -75.0389 238° Southwest 398 458 43,000  Level New York Center
03:18PM 40.6925 -75.1639 239° Southwest 398 458 43,000  Level New York Center
03:19PM 40.6333 -75.2914 239° Southwest 398 458 43,000  Level New York Center
03:20PM 40.5742 -75.4186 239° Southwest 403 464 43,000  Level New York Center
03:21PM 40.5150 -75.5431 238° Southwest 403 464 43,000  Level New York Center
03:22PM 40.4558 -75.6697 238° Southwest 408 470 43,000  Level New York Center
03:23PM 40.3942 -75.7989 238° Southwest 413 475 43,000  Level New York Center
03:24PM 40.3303 -75.9250 236° Southwest 413 475 43,000  Level New York Center
03:25PM 40.2683 -76.0511 237° Southwest 423 487 43,000  Level New York Center
03:26PM 40.2064 -76.1794 238° Southwest 418 481 43,000  Level New York Center
03:27PM 40.1506 -76.3056 240° Southwest 418 481 43,000  Level New York Center
03:29PM 40.0433 -76.5292 238° Southwest 407 468 43,000  Level Washington Center
03:30PM 39.9778 -76.6583 237° Southwest 417 480 43,000  Level Washington Center
03:31PM 39.9139 -76.7872 237° Southwest 423 487 43,000  Level Washington Center
03:32PM 39.8522 -76.9158 238° Southwest 428 493 43,000  Level Washington Center
03:33PM 39.7883 -77.0417 237° Southwest 428 493 43,000  Level Washington Center
03:34PM 39.7264 -77.1697 238° Southwest 428 493 43,000  Level Washington Center
03:35PM 39.6664 -77.2925 238° Southwest 428 493 43,000  Level Washington Center
03:36PM 39.6019 -77.4175 236° Southwest 428 493 43,000  Level Washington Center
03:37PM 39.5394 -77.5453 238° Southwest 423 487 43,000  Level Washington Center
03:38PM 39.4747 -77.6725 237° Southwest 423 487 43,000  Level Washington Center
03:39PM 39.4122 -77.7969 237° Southwest 423 487 43,000  Level Washington Center
03:40PM 39.3556 -77.9294 241° Southwest 423 487 43,000  Level Washington Center
03:41PM 39.3194 -78.0706 252° West 416 479 43,000  Level Washington Center
03:42PM 39.2869 -78.2169 254° West 424 488 43,000  Level Washington Center
03:43PM 39.2531 -78.3442 251° West 424 488 43,000  Level Washington Center
03:44PM 39.2206 -78.4878 254° West 424 488 43,000  Level Washington Center
03:45PM 39.1836 -78.6308 252° West 419 482 43,000  Level Washington Center
03:46PM 39.1486 -78.7739 253° West 419 482 43,000  Level Washington Center
03:47PM 39.1114 -78.9167 251° West 424 488 43,000  Level Washington Center
03:48PM 39.0761 -79.0597 252° West 424 488 43,000  Level Washington Center
03:49PM 39.0425 -79.2050 253° West 424 488 43,000  Level Washington Center
03:50PM 39.0047 -79.3500 252° West 424 488 43,000  Level Washington Center
03:51PM 38.9644 -79.5056 252° West 419 482 43,000  Level Washington Center
03:52PM 38.9350 -79.6400 254° West 424 488 43,000  Level Washington Center
03:53PM 38.8919 -79.7978 251° West 434 499 43,000  Level Washington Center
03:54PM 38.8556 -79.9450 252° West 434 499 43,000  Level Washington Center
03:55PM 38.8150 -80.0775 249° West 425 489 43,000  Level Indianapolis Center
03:56PM 38.7778 -80.2214 252° West 425 489 43,000  Level Indianapolis Center
03:57PM 38.7308 -80.3953 251° West 430 495 43,000  Level Indianapolis Center
03:58PM 38.6939 -80.5389 252° West 425 489 43,000  Level Indianapolis Center
03:59PM 38.6542 -80.6844 251° West 431 496 43,000  Level Indianapolis Center
04:00PM 38.6147 -80.8294 251° West 431 496 43,000  Level Indianapolis Center
04:01PM 38.5756 -80.9764 251° West 434 499 43,000  Level Indianapolis Center
04:02PM 38.5350 -81.1214 250° West 432 497 43,000  Level Indianapolis Center
04:03PM 38.4944 -81.2694 251° West 435 501 43,000  Level Indianapolis Center
04:04PM 38.4528 -81.4172 250° West 437 503 43,000  Level Indianapolis Center
04:05PM 38.4125 -81.5672 251° West 440 506 43,000  Level Indianapolis Center
04:06PM 38.3631 -81.7447 250° West 439 505 43,000  Level Indianapolis Center
04:07PM 38.3225 -81.8917 251° West 440 506 43,000  Level Indianapolis Center
04:08PM 38.2806 -82.0383 250° West 440 506 43,000  Level Indianapolis Center
04:09PM 38.2392 -82.1881 251° West 446 513 43,000  Level Indianapolis Center
04:10PM 38.1969 -82.3339 250° West 441 507 43,000  Level Indianapolis Center
04:11PM 38.1492 -82.5000 250° West 443 510 43,000  Level Indianapolis Center
04:12PM 38.1072 -82.6497 250° West 446 513 43,000  Level Indianapolis Center
04:13PM 38.0639 -82.7958 249° West 445 512 43,000  Level Indianapolis Center
04:14PM 38.0211 -82.9458 250° West 451 519 43,000  Level Indianapolis Center
04:15PM 37.9775 -83.0939 250° West 449 517 43,000  Level Indianapolis Center
04:16PM 37.9256 -83.2669 249° West 449 517 43,000  Level Indianapolis Center
04:17PM 37.8819 -83.4169 250° West 454 522 43,000  Level Indianapolis Center
04:18PM 37.8383 -83.5639 249° West 449 517 43,000  Level Indianapolis Center
04:19PM 37.7922 -83.7128 249° West 454 522 43,000  Level Indianapolis Center
04:21PM 37.7481 -83.8608 249° West 452 520 43,000  Level Indianapolis Center
04:22PM 37.7025 -84.0097 249° West 455 524 43,000  Level Indianapolis Center
04:23PM 37.6486 -84.1839 249° West 455 524 43,000  Level Indianapolis Center
04:24PM 37.6028 -84.3331 249° West 457 526 43,000  Level Indianapolis Center
04:25PM 37.5589 -84.4803 249° West 452 520 43,000  Level Indianapolis Center
04:26PM 37.5106 -84.6297 248° West 457 526 43,000  Level Indianapolis Center
04:27PM 37.4642 -84.7772 248° West 456 525 43,000  Level Indianapolis Center
04:28PM 37.4106 -84.9489 249° West 453 521 43,000  Level Indianapolis Center
04:29PM 37.3633 -85.0975 248° West 457 526 43,000  Level Indianapolis Center
04:30PM 37.3172 -85.2447 249° West 455 524 43,000  Level Indianapolis Center
04:31PM 37.2697 -85.3922 248° West 456 525 43,000  Level Indianapolis Center
04:32PM 37.2242 -85.5372 249° West 457 526 43,000  Level Indianapolis Center
04:33PM 37.1764 -85.6856 248° West 457 526 43,000  Level Indianapolis Center
04:34PM 37.1200 -85.8592 248° West 458 527 43,000  Level Indianapolis Center
04:35PM 37.0719 -86.0072 248° West 457 526 43,000  Level Indianapolis Center
04:36PM 37.0231 -86.1553 248° West 458 527 43,000  Level Indianapolis Center
04:37PM 36.9753 -86.3022 248° West 455 524 43,000  Level Indianapolis Center
04:38PM 36.9342 -86.4250 247° West 460 529 43,000  Level Memphis Center
04:39PM 36.8844 -86.5700 247° West 455 524 43,000  Level Memphis Center
04:40PM 36.8325 -86.7125 246° West 455 524 43,000  Level Memphis Center
04:41PM 36.7825 -86.8572 247° West 455 524 43,000  Level Memphis Center
04:42PM 36.7300 -86.9992 245° Southwest 455 524 43,000  Level Memphis Center
04:43PM 36.6797 -87.1436 247° West 455 524 43,000  Level Memphis Center
04:44PM 36.6269 -87.2853 245° Southwest 455 524 43,000  Level Memphis Center
04:45PM 36.5722 -87.4294 245° Southwest 455 524 43,000  Level Memphis Center
04:46PM 36.5153 -87.5839 245° Southwest 455 524 43,000  Level Memphis Center
04:47PM 36.4619 -87.7250 245° Southwest 449 517 43,000  Level Memphis Center
04:48PM 36.4108 -87.8661 246° West 449 517 43,000  Level Memphis Center
04:49PM 36.3572 -88.0067 245° Southwest 449 517 43,000  Level Memphis Center
04:50PM 36.3075 -88.1369 245° Southwest 444 511 43,000  Level Memphis Center
04:51PM 36.2517 -88.2800 244° Southwest 439 505 43,000  Level Memphis Center
04:52PM 36.1997 -88.4203 245° Southwest 446 513 43,000  Level Memphis Center
04:53PM 36.1433 -88.5603 244° Southwest 446 513 43,000  Level Memphis Center
04:54PM 36.0892 -88.7003 244° Southwest 446 513 43,000  Level Memphis Center
04:55PM 36.0325 -88.8375 243° Southwest 451 519 43,000  Level Memphis Center
04:56PM 35.9778 -88.9822 245° Southwest 451 519 43,000  Level Memphis Center
04:57PM 35.9269 -89.1061 243° Southwest 451 519 43,000  Level Memphis Center
04:58PM 35.8722 -89.2478 245° Southwest 451 519 43,000  Level Memphis Center
04:59PM 35.8169 -89.3894 244° Southwest 451 519 43,000  Level Memphis Center
05:00PM 35.7617 -89.5306 244° Southwest 451 519 43,000  Level Memphis Center
05:01PM 35.7083 -89.6692 245° Southwest 456 525 43,000  Level Memphis Center
05:02PM 35.6550 -89.8231 247° West 451 519 43,000  Level Memphis Center
05:03PM 35.5992 -89.9639 244° Southwest 456 525 43,000  Level Memphis Center
05:04PM 35.5431 -90.1069 244° Southwest 461 531 43,000  Level Memphis Center
05:05PM 35.4850 -90.2475 243° Southwest 467 537 43,000  Level Memphis Center
05:06PM 35.4350 -90.3722 244° Southwest 467 537 43,000  Level Memphis Center
05:07PM 35.3764 -90.5122 243° Southwest 461 531 43,000  Level Memphis Center
05:08PM 35.3200 -90.6522 244° Southwest 461 531 43,000  Level Memphis Center
05:09PM 35.2633 -90.7894 243° Southwest 461 531 43,000  Level Memphis Center
05:10PM 35.2064 -90.9289 243° Southwest 461 531 43,000  Level Memphis Center
05:11PM 35.1514 -91.0681 244° Southwest 466 536 43,000  Level Memphis Center
05:12PM 35.0900 -91.2072 242° Southwest 461 531 43,000  Level Memphis Center
05:13PM 35.0347 -91.3486 245° Southwest 467 537 43,000  Level Memphis Center
05:14PM 34.9667 -91.4950 240° Southwest 462 532 43,000  Level Memphis Center
05:15PM 34.9069 -91.6358 243° Southwest 462 532 43,000  Level Memphis Center
05:16PM 34.8492 -91.7767 243° Southwest 468 539 43,000  Level Memphis Center
05:17PM 34.7911 -91.9147 243° Southwest 468 539 43,000  Level Memphis Center
05:18PM 34.7331 -92.0503 243° Southwest 468 539 43,000  Level Memphis Center
05:19PM 34.6769 -92.1906 244° Southwest 468 539 43,000  Level Memphis Center
05:20PM 34.6350 -92.3386 251° West 468 539 43,000  Level Memphis Center
05:21PM 34.5928 -92.4889 251° West 468 539 43,000  Level Memphis Center
05:22PM 34.5547 -92.6394 253° West 468 539 43,000  Level Memphis Center
05:23PM 34.5164 -92.7894 253° West 468 539 43,000  Level Memphis Center
05:24PM 34.4758 -92.9344 251° West 468 539 43,000  Level Memphis Center
05:25PM 34.4372 -93.0819 252° West 468 539 43,000  Level Memphis Center
05:27PM 34.3644 -93.3606 253° West 455 524 43,000  Level Fort Worth Center
05:28PM 34.3192 -93.5061 249° West 455 524 43,000  Level Fort Worth Center
05:29PM 34.2672 -93.6517 247° West 460 529 43,000  Level Fort Worth Center
05:30PM 34.2172 -93.7944 247° West 460 529 43,000  Level Fort Worth Center
05:31PM 34.1650 -93.9372 246° West 460 529 43,000 -480 Level Fort Worth Center
05:32PM 34.1125 -94.0797 246° West 460 529 42,100 -1,500 Descending Fort Worth Center
05:33PM 34.0619 -94.2219 247° West 460 529 40,100 -2,100 Descending Fort Worth Center
05:34PM 34.0092 -94.3692 247° West 466 536 37,900 -2,220 Descending Fort Worth Center
05:35PM 33.9522 -94.5164 245° Southwest 472 543 35,700 -2,220 Descending Fort Worth Center
05:36PM 33.8972 -94.6683 246° West 490 564 33,500 -2,220 Descending Fort Worth Center
05:37PM 33.8400 -94.8253 246° West 502 578 31,300 -2,280 Descending Fort Worth Center
05:38PM 33.7783 -94.9844 245° Southwest 514 592 29,000 -2,400 Descending Fort Worth Center
05:39PM 33.7208 -95.1386 246° West 514 592 26,600 -2,400 Descending Fort Worth Center
05:40PM 33.6650 -95.2847 245° Southwest 497 572 24,300 -2,220 Descending Fort Worth Center
05:41PM 33.6169 -95.4131 246° West 484 557 22,200 -2,100 Descending Fort Worth Center
05:42PM 33.5608 -95.5589 245° Southwest 465 535 20,200 -1,920 Descending Fort Worth Center
05:43PM 33.5206 -95.6744 247° West 440 506 18,400 -1,800 Descending Fort Worth Center
05:44PM 33.4681 -95.8072 245° Southwest 410 472 16,600 -1,740 Descending Fort Worth Center
05:45PM 33.4256 -95.9150 245° Southwest 404 465 15,000 -1,740 Descending Fort Worth Center
05:46PM 33.3769 -96.0428 246° West 404 465 13,200 -1,800 Descending Fort Worth Center
05:47PM 33.3344 -96.1528 245° Southwest 386 444 11,500 -1,500 Descending Fort Worth Center
05:48PM 33.2978 -96.2478 245° Southwest 340 391 10,200 -1,200 Descending Fort Worth Center
05:49PM 33.2608 -96.3378 244° Southwest 307 353 9,100 -600 Descending Fort Worth Center
05:50PM 33.2094 -96.4178 232° Southwest 302 348 9,000 -600 Descending Fort Worth Center
05:50PM 33.1833 -96.4667 237° Southwest 303 349 8,200 -1,380 Descending Dallas / Fort Worth TRACON
05:51PM 33.1333 -96.5333 228° Southwest 289 333 7,000 -1,200 Descending Dallas / Fort Worth TRACON
05:52PM 33.1167 -96.5775 246° West 294 338 6,500 -600 Descending Fort Worth Center
05:53PM 33.0711 -96.6550 235° Southwest 289 333 6,100 -300 Descending Fort Worth Center
05:54PM 33.0297 -96.7294 236° Southwest 279 321 6,000 -600 Descending Fort Worth Center
05:55PM 32.9947 -96.7942 237° Southwest 267 307 4,900 -960 Descending Fort Worth Center
05:56PM 32.9678 -96.8661 246° West 252 290 4,100 -900 Descending Fort Worth Center
05:57PM 32.9431 -96.9183 241° Southwest 223 257 3,200 -1,080 Descending Fort Worth Center
05:58PM 32.9033 -96.9086 168° South 160 184 2,000 -1,200 Descending Fort Worth Center
05:59PM 32.8761 -96.8792 138° Southeast 112 129 900 -1,140 Descending Fort Worth Center